createdAt,value
2024-02-16T00:02:04.937Z,13.43
2024-02-16T00:04:32.192Z,13.45
2024-02-16T00:07:01.402Z,13.71
2024-02-16T00:09:28.775Z,13.73
2024-02-16T00:11:56.255Z,13.68
2024-02-16T00:14:22.996Z,13.60
2024-02-16T00:16:49.712Z,13.55
2024-02-16T00:19:18.781Z,13.53
2024-02-16T00:21:45.479Z,13.49
2024-02-16T00:24:12.157Z,13.46
2024-02-16T00:26:40.902Z,13.44
2024-02-16T00:29:07.981Z,13.43
2024-02-16T00:31:34.754Z,13.41
2024-02-16T00:34:01.651Z,13.40
2024-02-16T00:36:32.126Z,13.39
2024-02-16T00:38:59.646Z,13.39
2024-02-16T00:41:27.299Z,13.37
2024-02-16T00:43:54.115Z,13.37
2024-02-16T00:46:21.097Z,13.35
2024-02-16T00:48:48.542Z,13.34
2024-02-16T00:51:15.492Z,13.32
2024-02-16T00:53:42.359Z,13.32
2024-02-16T00:56:12.675Z,13.32
2024-02-16T00:58:43.967Z,13.30
2024-02-16T01:01:12.799Z,13.28
2024-02-16T01:03:40.032Z,13.28
2024-02-16T01:06:07.231Z,13.28
2024-02-16T01:08:36.192Z,13.28
2024-02-16T01:11:03.676Z,13.26
2024-02-16T01:13:30.512Z,13.26
2024-02-16T01:15:57.229Z,13.25
2024-02-16T01:18:23.954Z,13.24
2024-02-16T01:20:53.343Z,13.23
2024-02-16T01:23:20.883Z,13.22
2024-02-16T01:25:47.824Z,13.22
2024-02-16T01:28:17.367Z,13.22
2024-02-16T01:30:44.400Z,13.20
2024-02-16T01:33:11.822Z,13.19
2024-02-16T01:35:38.798Z,13.19
2024-02-16T01:38:06.604Z,13.18
2024-02-16T01:40:33.251Z,13.16
2024-02-16T01:42:59.889Z,13.15
2024-02-16T01:45:29.539Z,13.12
2024-02-16T01:47:56.914Z,13.12
2024-02-16T01:50:24.150Z,13.11
2024-02-16T01:52:51.472Z,13.10
2024-02-16T01:55:18.267Z,13.09
2024-02-16T01:57:47.024Z,13.08
2024-02-16T02:00:16.503Z,13.08
2024-02-16T02:02:48.512Z,13.08
2024-02-16T02:05:16.675Z,13.08
2024-02-16T02:07:44.291Z,13.09
2024-02-16T02:10:14.725Z,13.08
2024-02-16T02:12:43.496Z,13.08
2024-02-16T02:15:10.571Z,13.08
2024-02-16T02:17:37.614Z,13.08
2024-02-16T02:20:05.538Z,13.07
2024-02-16T02:22:32.386Z,13.08
2024-02-16T02:24:59.401Z,13.09
2024-02-16T02:27:26.096Z,13.08
2024-02-16T02:29:52.864Z,13.09
2024-02-16T02:32:19.572Z,13.08
2024-02-16T02:34:46.272Z,13.09
2024-02-16T02:37:13.193Z,13.09
2024-02-16T02:39:39.871Z,13.08
2024-02-16T02:42:06.824Z,13.08
2024-02-16T02:44:33.718Z,13.08
2024-02-16T02:47:02.752Z,13.07
2024-02-16T02:49:32.404Z,13.06
2024-02-16T02:51:59.083Z,13.05
2024-02-16T02:54:25.772Z,13.04
2024-02-16T02:56:52.460Z,13.03
2024-02-16T02:59:19.233Z,13.04
2024-02-16T03:01:46.799Z,13.00
2024-02-16T03:04:13.509Z,13.00
2024-02-16T03:06:40.231Z,13.00
2024-02-16T03:09:09.281Z,13.00
2024-02-16T03:11:36.935Z,13.00
2024-02-16T03:14:04.364Z,12.98
2024-02-16T03:16:31.056Z,12.97
2024-02-16T03:18:58.480Z,12.96
2024-02-16T03:21:28.379Z,12.95
2024-02-16T03:23:55.113Z,12.95
2024-02-16T03:26:22.000Z,12.94
2024-02-16T03:28:51.384Z,12.94
2024-02-16T03:31:19.315Z,12.92
2024-02-16T03:33:46.095Z,12.91
2024-02-16T03:36:14.844Z,12.91
2024-02-16T03:38:48.399Z,12.89
2024-02-16T03:41:16.599Z,12.89
2024-02-16T03:43:44.033Z,12.89
2024-02-16T03:46:11.191Z,12.87
2024-02-16T03:48:38.221Z,12.87
2024-02-16T03:51:05.314Z,12.86
2024-02-16T03:53:32.147Z,12.86
2024-02-16T03:55:58.808Z,12.85
2024-02-16T03:58:26.072Z,12.84
2024-02-16T04:00:56.132Z,12.83
2024-02-16T04:03:22.983Z,12.82
2024-02-16T04:05:49.738Z,12.82
2024-02-16T04:08:16.572Z,12.81
2024-02-16T04:10:43.324Z,12.80
2024-02-16T04:13:10.004Z,12.79
2024-02-16T04:15:36.761Z,12.79
2024-02-16T04:18:03.848Z,12.78
2024-02-16T04:20:30.594Z,12.78
2024-02-16T04:22:57.214Z,12.76
2024-02-16T04:25:23.874Z,12.75
2024-02-16T04:27:50.644Z,12.74
2024-02-16T04:30:19.782Z,12.73
2024-02-16T04:32:46.506Z,12.73
2024-02-16T04:35:13.646Z,12.72
2024-02-16T04:37:43.494Z,12.70
2024-02-16T04:40:16.551Z,12.70
2024-02-16T04:42:43.231Z,12.69
2024-02-16T04:45:13.428Z,12.68
2024-02-16T04:47:40.450Z,12.66
2024-02-16T04:50:11.062Z,12.64
2024-02-16T04:52:41.921Z,12.63
2024-02-16T04:55:09.263Z,12.61
2024-02-16T04:57:36.146Z,12.61
2024-02-16T05:00:03.465Z,12.59
2024-02-16T05:02:30.170Z,12.59
2024-02-16T05:04:57.812Z,12.58
2024-02-16T05:07:25.933Z,12.57
2024-02-16T05:09:57.003Z,12.55
2024-02-16T05:12:23.751Z,12.54
2024-02-16T05:14:54.210Z,12.52
2024-02-16T05:17:24.037Z,12.52
2024-02-16T05:19:51.211Z,12.50
2024-02-16T05:22:20.032Z,12.48
2024-02-16T05:24:47.423Z,12.47
2024-02-16T05:27:14.470Z,12.46
2024-02-16T05:29:41.795Z,12.44
2024-02-16T05:32:11.707Z,12.45
2024-02-16T05:34:43.936Z,12.43
2024-02-16T05:37:10.785Z,12.42
2024-02-16T05:39:54.612Z,12.40
2024-02-16T05:42:24.715Z,12.38
2024-02-16T05:44:53.900Z,12.37
2024-02-16T05:47:20.585Z,12.36
2024-02-16T05:49:47.959Z,12.33
2024-02-16T05:52:21.815Z,12.30
2024-02-16T05:54:50.549Z,12.30
2024-02-16T05:57:18.097Z,12.29
2024-02-16T05:59:48.027Z,12.26
2024-02-16T06:02:15.569Z,12.26
2024-02-16T06:04:42.975Z,12.24
2024-02-16T06:07:12.411Z,12.23
2024-02-16T06:09:39.210Z,12.21
2024-02-16T06:12:08.271Z,12.20
2024-02-16T06:14:35.363Z,12.18
2024-02-16T06:17:01.963Z,12.17
2024-02-16T06:19:28.907Z,12.16
2024-02-16T06:21:56.335Z,12.14
2024-02-16T06:24:24.110Z,12.13
2024-02-16T06:26:55.809Z,12.12
2024-02-16T06:29:24.192Z,12.09
2024-02-16T06:31:53.579Z,12.08
2024-02-16T06:34:21.118Z,12.07
2024-02-16T06:36:48.105Z,12.07
2024-02-16T06:39:18.066Z,12.03
2024-02-16T06:41:46.561Z,12.02
2024-02-16T06:44:18.467Z,12.00
2024-02-16T06:46:46.697Z,11.98
2024-02-16T06:49:13.397Z,11.97
2024-02-16T06:51:42.805Z,11.95
2024-02-16T06:54:09.541Z,11.93
2024-02-16T06:56:37.081Z,11.90
2024-02-16T06:59:04.119Z,11.88
2024-02-16T07:01:30.890Z,11.87
2024-02-16T07:03:57.670Z,11.87
2024-02-16T07:06:24.470Z,11.85
2024-02-16T07:08:51.959Z,11.82
2024-02-16T07:11:19.898Z,11.81
2024-02-16T07:13:47.592Z,11.78
2024-02-16T07:16:14.250Z,11.76
2024-02-16T07:18:41.065Z,11.75
2024-02-16T07:21:07.776Z,11.73
2024-02-16T07:23:34.565Z,11.72
2024-02-16T07:26:07.523Z,11.69
2024-02-16T07:28:34.798Z,11.67
2024-02-16T07:31:01.552Z,11.65
2024-02-16T07:33:29.916Z,11.82
2024-02-16T07:35:57.197Z,12.24
2024-02-16T07:38:24.102Z,12.56
2024-02-16T07:40:51.887Z,12.69
2024-02-16T07:43:19.826Z,12.75
2024-02-16T07:45:46.919Z,12.83
2024-02-16T07:48:13.999Z,12.95
2024-02-16T07:50:40.800Z,13.07
2024-02-16T07:53:07.543Z,13.02
2024-02-16T07:55:34.219Z,12.74
2024-02-16T07:58:00.954Z,12.47
2024-02-16T08:00:27.759Z,12.25
2024-02-16T08:02:54.723Z,12.09
2024-02-16T08:05:21.539Z,11.96
2024-02-16T08:07:48.687Z,11.88
2024-02-16T08:10:17.681Z,11.83
2024-02-16T08:12:47.702Z,11.77
2024-02-16T08:15:16.531Z,11.73
2024-02-16T08:17:45.485Z,11.70
2024-02-16T08:20:12.907Z,11.69
2024-02-16T08:22:39.769Z,11.65
2024-02-16T08:25:07.872Z,11.62
2024-02-16T08:27:34.753Z,11.60
2024-02-16T08:30:03.304Z,11.59
2024-02-16T08:32:30.952Z,11.58
2024-02-16T08:34:59.690Z,11.57
2024-02-16T08:37:26.884Z,11.55
2024-02-16T08:39:54.118Z,11.54
2024-02-16T08:42:20.954Z,11.53
2024-02-16T08:44:47.886Z,11.53
2024-02-16T08:47:14.558Z,11.55
2024-02-16T08:49:43.548Z,11.59
2024-02-16T08:52:10.355Z,11.64
2024-02-16T08:54:38.220Z,11.67
2024-02-16T08:57:07.411Z,11.71
2024-02-16T08:59:35.570Z,11.74
2024-02-16T09:02:07.185Z,11.77
2024-02-16T09:04:35.258Z,11.81
2024-02-16T09:07:04.576Z,11.84
2024-02-16T09:09:32.268Z,11.88
2024-02-16T09:11:58.953Z,11.90
2024-02-16T09:14:25.885Z,11.93
2024-02-16T09:16:52.966Z,11.95
2024-02-16T09:19:21.167Z,11.98
2024-02-16T09:21:50.719Z,12.03
2024-02-16T09:24:19.250Z,12.06
2024-02-16T09:26:49.455Z,12.09
2024-02-16T09:29:16.234Z,12.13
2024-02-16T09:31:43.363Z,12.17
2024-02-16T09:34:10.780Z,12.20
2024-02-16T09:36:40.001Z,12.23
2024-02-16T09:39:07.287Z,12.24
2024-02-16T09:41:39.916Z,12.27
2024-02-16T09:44:07.653Z,12.27
2024-02-16T09:46:34.866Z,12.27
2024-02-16T09:49:04.267Z,12.22
2024-02-16T09:51:31.795Z,12.21
2024-02-16T09:53:59.853Z,12.22
2024-02-16T09:56:26.944Z,12.26
2024-02-16T09:58:56.397Z,12.28
2024-02-16T10:01:24.631Z,12.31
2024-02-16T10:03:51.918Z,12.34
2024-02-16T10:06:19.273Z,12.40
2024-02-16T10:08:54.500Z,12.46
2024-02-16T10:11:26.206Z,12.52
2024-02-16T10:14:05.425Z,12.58
2024-02-16T10:16:34.828Z,12.62
2024-02-16T10:19:14.695Z,12.68
2024-02-16T10:21:43.955Z,12.71
2024-02-16T10:24:16.138Z,12.76
2024-02-16T10:26:43.028Z,12.81
2024-02-16T10:29:12.249Z,12.86
2024-02-16T10:31:39.190Z,12.88
2024-02-16T10:34:08.149Z,12.88
2024-02-16T10:36:39.735Z,12.90
2024-02-16T10:39:08.083Z,12.92
2024-02-16T10:41:37.277Z,12.98
2024-02-16T10:44:05.496Z,13.05
2024-02-16T10:46:33.033Z,13.22
2024-02-16T10:49:00.702Z,13.75
2024-02-16T10:51:40.038Z,14.01
2024-02-16T10:54:08.377Z,14.15
2024-02-16T10:56:37.110Z,14.36
2024-02-16T10:59:10.145Z,14.55
2024-02-16T11:01:46.473Z,14.69
2024-02-16T11:04:21.883Z,14.78
2024-02-16T11:06:58.114Z,14.89
2024-02-16T11:09:30.601Z,14.94
2024-02-16T11:12:02.325Z,14.94
2024-02-16T11:14:39.539Z,14.95
2024-02-16T11:17:17.147Z,14.99
2024-02-16T11:19:45.610Z,15.03
2024-02-16T11:22:19.746Z,15.08
2024-02-16T11:24:53.392Z,15.12
2024-02-16T11:27:21.256Z,15.16
2024-02-16T11:29:49.693Z,15.17
2024-02-16T11:32:16.574Z,15.15
2024-02-16T11:34:43.575Z,15.15
2024-02-16T11:37:10.529Z,15.08
2024-02-16T11:39:41.959Z,15.06
2024-02-16T11:42:13.925Z,15.11
2024-02-16T11:44:42.314Z,15.17
2024-02-16T11:47:18.355Z,15.15
2024-02-16T11:49:45.715Z,15.08
2024-02-16T11:52:12.611Z,15.07
2024-02-16T11:54:39.357Z,15.04
2024-02-16T11:57:08.277Z,15.03
2024-02-16T11:59:35.085Z,15.05
2024-02-16T12:02:01.746Z,15.05
2024-02-16T12:04:30.495Z,15.04
2024-02-16T12:07:05.833Z,15.07
2024-02-16T12:09:36.480Z,15.13
2024-02-16T12:12:04.422Z,15.13
2024-02-16T12:14:31.269Z,15.15
2024-02-16T12:16:59.214Z,15.16
2024-02-16T12:19:28.984Z,15.18
2024-02-16T12:22:00.046Z,15.20
2024-02-16T12:24:26.780Z,15.22
2024-02-16T12:26:55.884Z,15.23
2024-02-16T12:29:22.578Z,15.19
2024-02-16T12:31:50.662Z,15.19
2024-02-16T12:34:17.725Z,15.21
2024-02-16T12:36:47.429Z,15.19
2024-02-16T12:39:17.346Z,15.19
2024-02-16T12:41:45.331Z,15.20
2024-02-16T12:44:12.165Z,15.21
2024-02-16T12:46:40.352Z,15.20
2024-02-16T12:49:07.639Z,15.24
2024-02-16T12:51:34.584Z,15.31
2024-02-16T12:54:05.234Z,15.42
2024-02-16T12:56:34.523Z,15.46
2024-02-16T12:59:02.942Z,15.44
2024-02-16T13:01:29.910Z,15.41
2024-02-16T13:03:56.627Z,15.35
2024-02-16T13:06:28.087Z,15.31
2024-02-16T13:08:56.485Z,15.29
2024-02-16T13:11:23.502Z,15.30
2024-02-16T13:13:50.242Z,15.31
2024-02-16T13:16:17.132Z,15.30
2024-02-16T13:18:44.011Z,15.24
2024-02-16T13:21:10.870Z,15.25
2024-02-16T13:23:37.561Z,15.26
2024-02-16T13:26:05.714Z,15.28
2024-02-16T13:28:32.452Z,15.29
2024-02-16T13:31:00.085Z,15.27
2024-02-16T13:33:27.605Z,15.32
2024-02-16T13:35:56.116Z,15.38
2024-02-16T13:38:22.935Z,15.39
2024-02-16T13:40:50.472Z,15.44
2024-02-16T13:43:17.896Z,15.50
2024-02-16T13:45:52.800Z,15.56
2024-02-16T13:48:23.124Z,15.65
2024-02-16T13:50:55.671Z,15.70
2024-02-16T13:53:25.728Z,15.70
2024-02-16T13:55:52.384Z,15.68
2024-02-16T13:58:19.222Z,15.66
2024-02-16T14:00:46.190Z,15.63
2024-02-16T14:03:15.782Z,15.61
2024-02-16T14:05:45.373Z,15.56
2024-02-16T14:08:13.835Z,15.51
2024-02-16T14:10:40.704Z,15.52
2024-02-16T14:13:07.672Z,15.48
2024-02-16T14:15:34.417Z,15.49
2024-02-16T14:18:06.532Z,15.49
2024-02-16T14:20:38.974Z,15.49
2024-02-16T14:23:09.101Z,15.46
2024-02-16T14:25:38.757Z,15.44
2024-02-16T14:28:06.309Z,15.26
2024-02-16T14:30:35.834Z,15.31
2024-02-16T14:33:05.892Z,15.33
2024-02-16T14:35:37.310Z,15.42
2024-02-16T14:38:06.222Z,15.48
2024-02-16T14:40:34.163Z,15.50
2024-02-16T14:43:01.753Z,15.46
2024-02-16T14:45:28.520Z,15.40
2024-02-16T14:47:55.365Z,15.37
2024-02-16T14:50:25.881Z,15.37
2024-02-16T14:52:54.959Z,15.34
2024-02-16T14:55:21.995Z,15.37
2024-02-16T14:57:49.020Z,15.45
2024-02-16T15:00:16.323Z,15.51
2024-02-16T15:02:43.899Z,15.55
2024-02-16T15:05:10.998Z,15.59
2024-02-16T15:07:37.885Z,15.59
2024-02-16T15:10:05.113Z,15.63
2024-02-16T15:12:35.056Z,15.64
2024-02-16T15:15:01.919Z,15.65
2024-02-16T15:17:28.784Z,15.67
2024-02-16T15:19:55.917Z,15.66
2024-02-16T15:22:23.029Z,15.63
2024-02-16T15:24:50.050Z,15.62
2024-02-16T15:27:16.750Z,15.63
2024-02-16T15:29:44.862Z,15.60
2024-02-16T15:32:11.805Z,15.55
2024-02-16T15:34:38.539Z,15.54
2024-02-16T15:37:05.483Z,15.51
2024-02-16T15:39:32.189Z,15.50
2024-02-16T15:41:59.394Z,15.52
2024-02-16T15:44:26.113Z,15.52
2024-02-16T15:46:52.745Z,15.52
2024-02-16T15:49:19.984Z,15.51
2024-02-16T15:51:51.969Z,15.50
2024-02-16T15:54:18.997Z,15.51
2024-02-16T15:56:45.612Z,15.50
2024-02-16T15:59:12.263Z,15.50
2024-02-16T16:01:38.908Z,15.51
2024-02-16T16:04:05.786Z,15.51
2024-02-16T16:06:32.691Z,15.51
2024-02-16T16:08:59.464Z,15.49
2024-02-16T16:11:26.214Z,15.49
2024-02-16T16:13:53.015Z,15.49
2024-02-16T16:16:19.609Z,15.47
2024-02-16T16:18:46.358Z,15.47
2024-02-16T16:21:15.611Z,15.48
2024-02-16T16:23:42.210Z,15.49
2024-02-16T16:26:11.851Z,15.49
2024-02-16T16:28:38.408Z,15.48
2024-02-16T16:31:05.899Z,15.47
2024-02-16T16:33:32.702Z,15.46
2024-02-16T16:36:04.399Z,15.43
2024-02-16T16:38:34.185Z,15.45
2024-02-16T16:41:03.952Z,15.44
2024-02-16T16:43:30.589Z,15.45
2024-02-16T16:45:57.185Z,15.43
2024-02-16T16:48:24.101Z,15.41
2024-02-16T16:50:53.141Z,15.41
2024-02-16T16:53:21.711Z,15.41
2024-02-16T16:55:48.442Z,15.41
2024-02-16T16:58:15.073Z,15.38
2024-02-16T17:00:41.834Z,15.39
2024-02-16T17:03:08.673Z,15.38
2024-02-16T17:05:36.532Z,15.37
2024-02-16T17:08:03.295Z,15.35
2024-02-16T17:10:30.025Z,15.34
2024-02-16T17:12:56.684Z,15.34
2024-02-16T17:15:23.612Z,15.33
2024-02-16T17:17:53.907Z,15.33
2024-02-16T17:20:26.235Z,15.30
2024-02-16T17:22:54.896Z,15.29
2024-02-16T17:25:23.516Z,15.30
2024-02-16T17:27:50.574Z,15.29
2024-02-16T17:30:21.117Z,15.27
2024-02-16T17:32:51.556Z,15.27
2024-02-16T17:35:18.632Z,15.26
2024-02-16T17:37:46.777Z,15.26
2024-02-16T17:40:13.816Z,15.24
2024-02-16T17:42:40.770Z,15.23
2024-02-16T17:45:08.261Z,15.22
2024-02-16T17:47:35.952Z,15.21
2024-02-16T17:50:03.819Z,15.22
2024-02-16T17:52:30.922Z,15.18
2024-02-16T17:54:58.125Z,15.25
2024-02-16T17:57:24.889Z,15.34
2024-02-16T17:59:52.954Z,15.48
2024-02-16T18:02:29.256Z,15.67
2024-02-16T18:05:05.427Z,15.81
2024-02-16T18:07:32.095Z,15.81
2024-02-16T18:09:58.797Z,15.80
2024-02-16T18:12:25.552Z,15.85
2024-02-16T18:14:52.347Z,16.01
2024-02-16T18:17:21.924Z,16.16
2024-02-16T18:19:49.007Z,16.31
2024-02-16T18:22:15.884Z,16.40
2024-02-16T18:24:43.537Z,16.49
2024-02-16T18:27:13.540Z,16.55
2024-02-16T18:29:40.564Z,16.57
2024-02-16T18:32:07.188Z,16.63
2024-02-16T18:34:34.033Z,16.61
2024-02-16T18:37:00.872Z,16.56
2024-02-16T18:39:30.420Z,16.51
2024-02-16T18:41:58.411Z,16.44
2024-02-16T18:44:27.364Z,16.43
2024-02-16T18:46:54.068Z,16.40
2024-02-16T18:49:21.974Z,16.39
2024-02-16T18:51:48.761Z,16.37
2024-02-16T18:54:15.443Z,16.37
2024-02-16T18:56:44.946Z,16.34
2024-02-16T18:59:13.671Z,16.31
2024-02-16T19:01:40.686Z,16.33
2024-02-16T19:04:07.626Z,16.34
2024-02-16T19:06:36.999Z,16.31
2024-02-16T19:09:04.841Z,16.28
2024-02-16T19:11:32.505Z,16.11
2024-02-16T19:13:59.551Z,15.99
2024-02-16T19:16:29.208Z,15.85
2024-02-16T19:18:59.030Z,15.75
2024-02-16T19:21:25.840Z,15.65
2024-02-16T19:23:52.682Z,15.40
2024-02-16T19:26:20.280Z,15.13
2024-02-16T19:28:47.000Z,14.90
2024-02-16T19:31:14.702Z,14.73
2024-02-16T19:33:41.645Z,14.59
2024-02-16T19:36:10.042Z,14.49
2024-02-16T19:38:37.807Z,14.42
2024-02-16T19:41:05.054Z,14.33
2024-02-16T19:43:31.836Z,14.27
2024-02-16T19:46:00.071Z,14.22
2024-02-16T19:48:26.958Z,14.16
2024-02-16T19:50:54.459Z,14.11
2024-02-16T19:53:22.102Z,14.07
2024-02-16T19:55:49.234Z,14.02
2024-02-16T19:58:16.032Z,13.98
2024-02-16T20:00:43.760Z,13.94
2024-02-16T20:03:10.732Z,13.89
2024-02-16T20:05:37.672Z,13.86
2024-02-16T20:08:07.318Z,13.83
2024-02-16T20:10:34.021Z,13.78
2024-02-16T20:13:00.718Z,13.75
2024-02-16T20:15:31.566Z,13.74
2024-02-16T20:17:59.786Z,13.71
2024-02-16T20:20:27.893Z,13.68
2024-02-16T20:22:57.805Z,13.64
2024-02-16T20:25:24.588Z,13.62
2024-02-16T20:27:55.435Z,13.60
2024-02-16T20:30:27.695Z,13.58
2024-02-16T20:32:55.645Z,13.55
2024-02-16T20:35:25.417Z,13.53
2024-02-16T20:37:54.373Z,13.50
2024-02-16T20:40:21.332Z,13.48
2024-02-16T20:42:48.015Z,13.46
2024-02-16T20:45:17.751Z,13.43
2024-02-16T20:47:44.809Z,13.40
2024-02-16T20:50:13.901Z,13.39
2024-02-16T20:52:40.571Z,13.37
2024-02-16T20:55:07.918Z,13.35
2024-02-16T20:57:37.570Z,13.34
2024-02-16T21:00:09.204Z,13.32
2024-02-16T21:02:35.923Z,13.85
2024-02-16T21:05:02.539Z,14.26
2024-02-16T21:07:29.313Z,14.16
2024-02-16T21:09:57.328Z,14.00
2024-02-16T21:12:24.293Z,13.85
2024-02-16T21:14:51.002Z,13.71
2024-02-16T21:17:19.786Z,13.58
2024-02-16T21:19:47.860Z,13.49
2024-02-16T21:22:14.911Z,13.43
2024-02-16T21:24:41.676Z,13.36
2024-02-16T21:27:08.440Z,13.32
2024-02-16T21:29:38.799Z,13.28
2024-02-16T21:32:05.881Z,13.24
2024-02-16T21:34:32.557Z,13.21
2024-02-16T21:36:59.380Z,13.19
2024-02-16T21:39:26.189Z,13.16
2024-02-16T21:41:52.920Z,13.14
2024-02-16T21:44:19.554Z,13.11
2024-02-16T21:46:46.393Z,13.08
2024-02-16T21:49:13.321Z,13.06
2024-02-16T21:51:40.725Z,13.04
2024-02-16T21:54:10.232Z,13.01
2024-02-16T21:56:37.029Z,12.97
2024-02-16T21:59:03.889Z,12.95
2024-02-16T22:01:33.084Z,12.94
2024-02-16T22:03:59.924Z,12.90
2024-02-16T22:06:28.740Z,12.88
2024-02-16T22:08:58.190Z,12.83
2024-02-16T22:11:29.376Z,12.80
2024-02-16T22:13:56.155Z,12.77
2024-02-16T22:16:25.036Z,12.75
2024-02-16T22:18:52.430Z,12.71
2024-02-16T22:21:22.464Z,12.69
2024-02-16T22:23:58.973Z,12.65
2024-02-16T22:26:25.656Z,12.62
2024-02-16T22:28:52.440Z,12.60
2024-02-16T22:31:23.949Z,12.57
2024-02-16T22:33:52.272Z,12.54
2024-02-16T22:36:19.099Z,12.51
2024-02-16T22:38:45.828Z,12.50
2024-02-16T22:41:13.913Z,12.45
2024-02-16T22:43:42.821Z,12.43
2024-02-16T22:46:09.498Z,12.39
2024-02-16T22:48:36.187Z,12.37
2024-02-16T22:51:04.531Z,12.33
2024-02-16T22:53:31.132Z,12.31
2024-02-16T22:55:57.866Z,12.28
2024-02-16T22:58:25.156Z,12.25
2024-02-16T23:00:54.030Z,12.24
2024-02-16T23:03:23.275Z,12.20
2024-02-16T23:05:53.312Z,12.18
2024-02-16T23:08:20.607Z,12.15
2024-02-16T23:10:47.639Z,12.12
2024-02-16T23:13:16.005Z,12.10
2024-02-16T23:15:42.849Z,12.09
2024-02-16T23:18:09.840Z,12.07
2024-02-16T23:20:36.536Z,12.06
2024-02-16T23:23:11.160Z,12.05
2024-02-16T23:25:48.561Z,12.03
2024-02-16T23:28:17.691Z,12.02
2024-02-16T23:30:47.226Z,11.98
2024-02-16T23:33:14.488Z,11.97
2024-02-16T23:35:41.311Z,11.96
2024-02-16T23:38:08.163Z,11.95
2024-02-16T23:40:34.874Z,11.93
2024-02-16T23:43:01.474Z,11.92
2024-02-16T23:45:33.736Z,11.91
2024-02-16T23:48:00.757Z,11.91
2024-02-16T23:50:28.297Z,11.92
2024-02-16T23:52:58.481Z,11.90
2024-02-16T23:55:25.194Z,11.90
2024-02-16T23:57:53.498Z,11.89
